createdAt,value
2022-12-23T00:01:55.042Z,7.70
2022-12-23T00:04:23.435Z,7.80
2022-12-23T00:06:50.789Z,7.90
2022-12-23T00:09:22.960Z,8.00
2022-12-23T00:12:11.946Z,8.10
2022-12-23T00:14:58.709Z,8.10
2022-12-23T00:17:27.195Z,8.30
2022-12-23T00:19:55.838Z,8.30
2022-12-23T00:22:43.493Z,8.20
2022-12-23T00:25:14.811Z,8.20
2022-12-23T00:27:42.920Z,8.20
2022-12-23T00:30:13.171Z,8.10
2022-12-23T00:32:41.854Z,8.00
2022-12-23T00:39:22.824Z,7.60
2022-12-23T00:42:08.788Z,7.50
2022-12-23T00:44:37.682Z,7.30
2022-12-23T00:47:06.013Z,7.30
2022-12-23T00:49:52.179Z,7.40
2022-12-23T00:52:21.159Z,7.60
2022-12-23T00:54:49.065Z,7.70
2022-12-23T00:57:53.866Z,7.70
2022-12-23T01:00:42.253Z,8.00
2022-12-23T01:03:37.645Z,8.20
2022-12-23T01:09:53.193Z,8.10
2022-12-23T01:12:25.459Z,7.90
2022-12-23T01:14:57.176Z,7.80
2022-12-23T01:17:32.928Z,7.80
2022-12-23T01:20:02.821Z,7.90
2022-12-23T01:22:30.050Z,8.00
2022-12-23T01:24:58.716Z,8.20
2022-12-23T01:27:26.942Z,8.20
2022-12-23T01:29:58.913Z,8.20
2022-12-23T01:32:27.464Z,8.00
2022-12-23T01:34:55.110Z,7.50
2022-12-23T01:37:23.437Z,7.30
2022-12-23T01:39:50.867Z,7.10
2022-12-23T01:42:40.680Z,7.10
2022-12-23T01:45:23.746Z,6.80
2022-12-23T01:48:13.683Z,6.40
2022-12-23T01:51:00.760Z,6.20
2022-12-23T01:53:35.145Z,6.10
2022-12-23T01:56:21.215Z,6.20
2022-12-23T01:59:02.639Z,5.90
2022-12-23T02:01:54.313Z,6.00
2022-12-23T02:04:28.404Z,5.80
2022-12-23T02:07:19.288Z,5.80
2022-12-23T02:13:15.120Z,5.90
2022-12-23T02:16:20.041Z,6.00
2022-12-23T02:19:19.037Z,5.90
2022-12-23T02:22:08.357Z,5.90
2022-12-23T02:28:47.584Z,5.70
2022-12-23T02:39:05.932Z,5.60
2022-12-23T02:42:01.010Z,5.70
2022-12-23T02:45:19.833Z,5.60
2022-12-23T02:48:01.194Z,5.50
2022-12-23T02:50:35.330Z,5.60
2022-12-23T02:53:16.709Z,5.80
2022-12-23T02:55:47.089Z,5.40
2022-12-23T02:58:17.515Z,5.50
2022-12-23T03:00:45.743Z,5.60
2022-12-23T03:03:13.766Z,5.50
2022-12-23T03:05:45.311Z,5.50
2022-12-23T03:08:29.153Z,5.40
2022-12-23T03:11:15.058Z,5.50
2022-12-23T03:14:10.883Z,5.80
2022-12-23T03:16:47.610Z,5.90
2022-12-23T03:19:33.102Z,6.10
2022-12-23T03:22:37.035Z,6.00
2022-12-23T03:25:14.604Z,6.10
2022-12-23T03:27:44.741Z,6.00
2022-12-23T03:30:16.529Z,6.20
2022-12-23T03:32:55.463Z,6.20
2022-12-23T03:35:28.771Z,6.20
2022-12-23T03:37:59.197Z,6.20
2022-12-23T03:40:52.458Z,6.30
2022-12-23T03:43:58.085Z,6.40
2022-12-23T03:46:37.226Z,6.30
2022-12-23T03:49:09.171Z,6.30
2022-12-23T03:51:47.234Z,6.20
2022-12-23T03:54:21.742Z,6.40
2022-12-23T03:56:59.392Z,6.20
2022-12-23T03:59:36.990Z,6.40
2022-12-23T04:02:36.897Z,6.40
2022-12-23T04:05:22.450Z,6.40
2022-12-23T04:08:13.654Z,6.30
2022-12-23T04:10:41.283Z,6.30
2022-12-23T04:13:09.920Z,6.40
2022-12-23T04:15:41.880Z,6.40
2022-12-23T04:18:12.082Z,6.30
2022-12-23T04:20:40.461Z,6.40
2022-12-23T04:23:09.270Z,6.50
2022-12-23T04:25:38.100Z,6.70
2022-12-23T04:28:06.355Z,6.80
2022-12-23T04:30:34.679Z,6.90
2022-12-23T04:33:03.384Z,7.00
2022-12-23T04:35:34.431Z,6.80
2022-12-23T04:38:01.775Z,6.70
2022-12-23T04:40:29.812Z,6.70
2022-12-23T04:42:57.955Z,6.80
2022-12-23T04:45:27.405Z,6.90
2022-12-23T04:47:55.772Z,6.80
2022-12-23T04:50:22.821Z,6.80
2022-12-23T04:53:01.997Z,6.80
2022-12-23T04:55:28.946Z,6.70
2022-12-23T04:57:55.937Z,6.70
2022-12-23T05:01:08.540Z,6.70
2022-12-23T05:03:39.058Z,6.70
2022-12-23T05:06:09.844Z,6.70
2022-12-23T05:08:41.563Z,6.70
2022-12-23T05:11:11.052Z,6.80
2022-12-23T05:13:44.126Z,6.90
2022-12-23T05:16:12.753Z,6.90
2022-12-23T05:18:43.203Z,6.90
2022-12-23T05:21:12.639Z,7.00
2022-12-23T05:23:41.376Z,7.10
2022-12-23T05:26:09.859Z,7.30
2022-12-23T05:28:36.951Z,7.30
2022-12-23T05:31:08.535Z,7.20
2022-12-23T05:33:35.889Z,7.10
2022-12-23T05:36:03.787Z,7.20
2022-12-23T05:38:33.326Z,7.10
2022-12-23T05:41:00.674Z,7.20
2022-12-23T05:43:32.691Z,7.20
2022-12-23T05:45:59.994Z,7.10
2022-12-23T05:48:29.776Z,7.10
2022-12-23T05:50:59.240Z,7.30
2022-12-23T05:53:27.149Z,7.30
2022-12-23T05:55:54.314Z,7.20
2022-12-23T05:58:25.129Z,7.30
2022-12-23T06:00:58.483Z,7.20
2022-12-23T06:03:26.878Z,7.30
2022-12-23T06:05:57.515Z,7.30
2022-12-23T06:08:27.115Z,7.40
2022-12-23T06:10:59.043Z,7.40
2022-12-23T06:13:27.057Z,7.30
2022-12-23T06:16:00.410Z,7.40
2022-12-23T06:18:30.045Z,7.40
2022-12-23T06:20:57.109Z,7.90
2022-12-23T06:23:24.363Z,7.70
2022-12-23T06:26:09.780Z,7.70
2022-12-23T06:28:39.199Z,7.70
2022-12-23T06:31:07.700Z,7.70
2022-12-23T06:33:34.542Z,7.70
2022-12-23T06:36:05.630Z,7.50
2022-12-23T06:38:39.947Z,7.50
2022-12-23T06:41:10.671Z,7.60
2022-12-23T06:43:40.544Z,7.50
2022-12-23T06:46:09.453Z,7.40
2022-12-23T06:48:37.378Z,7.40
2022-12-23T06:51:05.044Z,7.40
2022-12-23T06:53:36.407Z,7.40
2022-12-23T06:56:04.404Z,7.40
2022-12-23T06:58:32.445Z,7.50
2022-12-23T07:01:01.018Z,7.60
2022-12-23T07:03:28.620Z,7.50
2022-12-23T07:05:55.897Z,7.50
2022-12-23T07:08:26.274Z,7.50
2022-12-23T07:11:03.613Z,7.50
2022-12-23T07:13:32.399Z,7.50
2022-12-23T07:16:12.756Z,7.40
2022-12-23T07:18:41.043Z,7.60
2022-12-23T07:21:21.422Z,7.60
2022-12-23T07:23:54.524Z,7.60
2022-12-23T07:26:24.293Z,7.50
2022-12-23T07:28:51.869Z,7.50
2022-12-23T07:31:19.331Z,7.60
2022-12-23T07:33:47.253Z,7.60
2022-12-23T07:36:14.199Z,7.60
2022-12-23T07:38:42.289Z,7.60
2022-12-23T07:41:11.862Z,7.40
2022-12-23T07:43:41.955Z,7.50
2022-12-23T07:46:14.659Z,7.50
2022-12-23T07:48:43.321Z,7.50
2022-12-23T07:51:11.573Z,7.50
2022-12-23T07:53:41.002Z,7.60
2022-12-23T07:56:10.483Z,7.60
2022-12-23T07:58:41.346Z,7.80
2022-12-23T08:01:13.410Z,7.90
2022-12-23T08:06:41.366Z,8.40
2022-12-23T08:09:09.933Z,8.40
2022-12-23T08:15:57.201Z,8.40
2022-12-23T08:18:26.671Z,8.30
2022-12-23T08:20:57.569Z,8.20
2022-12-23T08:43:37.073Z,8.80
2022-12-23T08:50:05.373Z,8.90
2022-12-23T08:56:25.870Z,8.60
2022-12-23T08:58:54.217Z,8.60
2022-12-23T09:01:31.252Z,8.80
2022-12-23T09:03:59.975Z,8.90
2022-12-23T09:06:30.392Z,9.10
2022-12-23T09:08:58.711Z,8.90
2022-12-23T09:11:29.077Z,9.00
2022-12-23T09:13:58.611Z,9.10
2022-12-23T09:16:26.093Z,9.10
2022-12-23T09:19:55.384Z,9.10
2022-12-23T09:35:30.220Z,9.90
2022-12-23T09:37:57.068Z,10.10
2022-12-23T09:40:24.337Z,10.00
2022-12-23T09:43:03.700Z,10.20
2022-12-23T09:45:55.018Z,10.00
2022-12-23T09:48:31.461Z,10.10
2022-12-23T09:50:58.285Z,9.80
2022-12-23T09:53:33.030Z,9.40
2022-12-23T09:56:13.138Z,9.40
2022-12-23T09:59:00.418Z,9.50
2022-12-23T10:01:30.562Z,9.40
2022-12-23T10:04:19.375Z,9.50
2022-12-23T10:06:56.355Z,9.50
2022-12-23T10:09:29.359Z,9.40
2022-12-23T10:11:57.618Z,9.30
2022-12-23T10:14:37.765Z,9.60
2022-12-23T10:28:40.217Z,10.40
2022-12-23T10:42:38.667Z,10.30
2022-12-23T10:45:41.667Z,10.30
2022-12-23T10:48:37.244Z,10.30
2022-12-23T10:51:39.069Z,10.30
2022-12-23T10:54:09.198Z,10.20
2022-12-23T10:56:36.179Z,10.50
2022-12-23T10:59:48.075Z,10.70
2022-12-23T11:02:15.769Z,10.90
2022-12-23T11:04:46.804Z,11.10
2022-12-23T11:07:44.683Z,10.90
2022-12-23T11:10:21.896Z,11.00
2022-12-23T11:18:07.242Z,10.90
2022-12-23T11:33:55.632Z,10.80
2022-12-23T11:36:28.569Z,10.60
2022-12-23T11:39:17.266Z,10.50
2022-12-23T11:41:48.799Z,10.50
2022-12-23T11:44:27.847Z,10.50
2022-12-23T11:57:49.019Z,11.00
2022-12-23T14:20:56.065Z,11.10
2022-12-23T15:47:46.803Z,10.60
2022-12-23T16:46:50.970Z,10.80
2022-12-23T16:49:20.227Z,10.90
2022-12-23T16:51:47.525Z,10.90
2022-12-23T16:54:17.873Z,10.90
2022-12-23T16:56:48.471Z,11.00
2022-12-23T16:59:17.700Z,11.00
2022-12-23T17:01:49.032Z,11.10
2022-12-23T17:06:51.801Z,11.20
2022-12-23T17:09:19.937Z,11.20
2022-12-23T17:11:51.122Z,11.20
2022-12-23T17:14:23.938Z,11.30
2022-12-23T17:16:52.209Z,11.20
2022-12-23T17:19:27.918Z,11.20
2022-12-23T17:22:01.837Z,11.00
2022-12-23T17:24:29.136Z,11.10
2022-12-23T17:27:00.714Z,11.10
2022-12-23T17:29:31.633Z,11.10
2022-12-23T17:31:58.899Z,11.20
2022-12-23T17:34:26.401Z,11.00
2022-12-23T17:36:53.602Z,11.00
2022-12-23T17:39:22.148Z,10.90
2022-12-23T17:41:49.411Z,10.60
2022-12-23T17:44:17.783Z,10.60
2022-12-23T17:49:30.122Z,10.90
2022-12-23T18:02:45.128Z,11.00
2022-12-23T18:05:28.734Z,11.10
2022-12-23T18:08:01.061Z,11.10
2022-12-23T18:10:37.995Z,11.10
2022-12-23T18:21:27.401Z,10.90
2022-12-23T19:04:34.721Z,10.10
2022-12-23T19:07:03.962Z,10.00
2022-12-23T19:09:38.475Z,9.70
2022-12-23T19:12:07.164Z,9.50
2022-12-23T19:14:35.635Z,9.40
2022-12-23T19:17:06.241Z,9.50
2022-12-23T20:08:20.741Z,9.70
2022-12-23T21:07:29.979Z,9.30
2022-12-23T21:23:18.053Z,8.80
2022-12-23T21:53:36.260Z,8.90
2022-12-23T22:07:47.179Z,8.30
2022-12-23T22:10:14.730Z,8.30
2022-12-23T22:12:41.798Z,8.30
2022-12-23T22:15:11.696Z,8.30
2022-12-23T22:17:39.614Z,8.30
2022-12-23T22:20:08.359Z,8.40
2022-12-23T22:22:35.970Z,8.30
2022-12-23T22:25:12.254Z,8.20
2022-12-23T22:27:40.151Z,8.30
2022-12-23T22:30:10.185Z,8.40
2022-12-23T22:56:56.861Z,8.20
2022-12-23T22:59:27.321Z,8.20
2022-12-23T23:01:55.252Z,8.30
2022-12-23T23:04:22.427Z,8.30
2022-12-23T23:06:50.486Z,8.30
2022-12-23T23:09:19.177Z,8.30
2022-12-23T23:12:26.793Z,8.20
2022-12-23T23:14:54.543Z,8.30
2022-12-23T23:17:29.144Z,8.30
2022-12-23T23:19:56.525Z,8.30
2022-12-23T23:22:25.261Z,8.20
2022-12-23T23:24:54.528Z,8.30
2022-12-23T23:27:23.453Z,8.40
2022-12-23T23:29:50.215Z,8.40
2022-12-23T23:32:17.597Z,8.50
2022-12-23T23:34:44.515Z,8.50
2022-12-23T23:37:11.333Z,8.50
2022-12-23T23:39:38.298Z,8.40
2022-12-23T23:42:05.339Z,8.40
2022-12-23T23:44:33.837Z,8.50
2022-12-23T23:47:03.616Z,8.70
2022-12-23T23:49:32.720Z,9.00
2022-12-23T23:52:06.349Z,8.90
2022-12-23T23:54:35.366Z,8.80
2022-12-23T23:57:05.269Z,8.70
2022-12-23T23:59:34.218Z,8.80
